Time;durP1;ratioP1;P1;durP2;ratioP2;P2;SDS_P1;SDS_P2;PMS_P1;PMS_P2;Temp;Humidity;BMP_temperature;BMP_pressure;BME280_temperature;BME280_humidity;BME280_pressure;Samples;Min_cycle;Max_cycle;Signal;HPM_P1;HPM_P2
2022/04/07 00:00:07;;;;;;;12.30;8.30;;;;;;;11.23;44.13;94315.97;4988894;28;20069;-57
2022/04/07 00:02:32;;;;;;;17.02;8.18;;;;;;;11.36;44.01;94313.28;4989085;28;20100;-57
2022/04/07 00:04:58;;;;;;;11.15;7.05;;;;;;;11.57;44.36;94316.75;4988371;28;20061;-60
2022/04/07 00:07:23;;;;;;;12.00;7.80;;;;;;;11.65;43.56;94307.63;4988973;28;20026;-59
2022/04/07 00:09:49;;;;;;;10.13;7.30;;;;;;;11.76;43.78;94311.00;4988782;28;20580;-58
2022/04/07 00:12:14;;;;;;;16.42;8.38;;;;;;;11.76;43.85;94310.19;4988653;28;20038;-57
2022/04/07 00:14:40;;;;;;;13.35;7.30;;;;;;;11.51;44.40;94296.63;4988738;28;20022;-60
2022/04/07 00:17:05;;;;;;;10.48;6.88;;;;;;;11.44;44.57;94292.03;4988105;28;20027;-55
2022/04/07 00:19:31;;;;;;;12.57;7.30;;;;;;;11.52;44.95;94287.91;4987626;28;20440;-56
2022/04/07 00:21:57;;;;;;;14.55;7.43;;;;;;;11.52;44.49;94282.75;4989004;28;20026;-58
2022/04/07 00:24:23;;;;;;;11.00;6.55;;;;;;;11.41;45.04;94282.75;4988731;28;20045;-59
2022/04/07 00:26:49;;;;;;;12.38;7.53;;;;;;;11.52;44.84;94280.16;4988615;28;20050;-58
2022/04/07 00:29:15;;;;;;;9.40;6.82;;;;;;;11.44;44.53;94282.53;4988495;28;20176;-60
2022/04/07 00:31:40;;;;;;;14.43;6.80;;;;;;;11.46;44.54;94259.16;4988796;28;20026;-57
2022/04/07 00:34:07;;;;;;;11.25;6.45;;;;;;;11.23;44.93;94238.56;4988876;28;20031;-62
2022/04/07 00:36:32;;;;;;;11.95;7.45;;;;;;;11.19;44.99;94235.41;4988609;28;20019;-61
2022/04/07 00:38:58;;;;;;;11.30;6.22;;;;;;;11.32;45.09;94265.44;4988041;28;20034;-60
2022/04/07 00:41:23;;;;;;;13.35;7.93;;;;;;;11.38;44.76;94258.03;4987314;28;20022;-59
2022/04/07 00:43:50;;;;;;;24.17;15.07;;;;;;;11.46;44.68;94269.50;4988492;28;20109;-61
2022/04/07 00:46:17;;;;;;;12.30;7.93;;;;;;;11.45;45.50;94271.28;4988274;28;20716;-61
2022/04/07 00:48:42;;;;;;;18.15;10.63;;;;;;;11.31;45.00;94274.09;4988727;28;20042;-67
2022/04/07 00:51:08;;;;;;;15.02;10.15;;;;;;;11.31;45.08;94271.50;4988155;28;20101;-60
2022/04/07 00:53:34;;;;;;;14.10;9.05;;;;;;;11.31;45.19;94249.09;4988551;28;20026;-60
2022/04/07 00:56:01;;;;;;;11.02;6.18;;;;;;;11.01;45.72;94218.78;4988451;28;20019;-60
2022/04/07 00:58:32;;;;;;;10.07;6.00;;;;;;;11.26;45.41;94251.22;4988441;28;20030;-57
2022/04/07 01:00:58;;;;;;;9.95;6.25;;;;;;;11.26;45.67;94234.94;4988482;28;20037;-57
2022/04/07 01:03:23;;;;;;;9.18;6.13;;;;;;;11.26;45.89;94230.56;4988114;28;20034;-56
2022/04/07 01:05:50;;;;;;;9.10;6.45;;;;;;;11.22;45.38;94235.16;4988627;28;20023;-59
2022/04/07 01:08:16;;;;;;;10.77;6.10;;;;;;;11.28;45.65;94235.63;4988490;28;20347;-59
2022/04/07 01:10:42;;;;;;;8.65;5.88;;;;;;;11.15;45.88;94236.59;4988395;28;20036;-59
2022/04/07 01:13:08;;;;;;;8.35;5.45;;;;;;;11.17;45.86;94233.91;4988394;28;20027;-59
2022/04/07 01:15:33;;;;;;;8.02;5.43;;;;;;;10.84;45.94;94186.56;4987569;28;20490;-60
2022/04/07 01:18:03;;;;;;;8.07;4.88;;;;;;;11.02;46.15;94213.50;4990499;28;20034;-58
2022/04/07 01:20:28;;;;;;;8.95;6.60;;;;;;;10.86;47.09;94200.16;4991938;28;20042;-61
2022/04/07 01:22:56;;;;;;;6.88;4.93;;;;;;;10.90;47.06;94208.47;4992078;28;20027;-63
2022/04/07 01:25:23;;;;;;;9.23;6.60;;;;;;;10.92;46.77;94212.56;4992109;28;20482;-58
2022/04/07 01:27:49;;;;;;;8.40;5.10;;;;;;;11.08;46.68;94206.22;4991619;28;20038;-55
2022/04/07 01:30:15;;;;;;;7.63;5.45;;;;;;;11.05;46.86;94194.38;4991671;28;20030;-57
2022/04/07 01:32:53;;;;;;;18.00;10.18;;;;;;;11.15;46.47;94191.88;4991657;28;20062;-57
2022/04/07 01:35:22;;;;;;;20.10;12.50;;;;;;;10.65;46.49;94110.59;4992001;28;20030;-55
2022/04/07 01:37:48;;;;;;;10.15;6.80;;;;;;;11.08;46.63;94176.06;4991807;28;20493;-58
2022/04/07 01:40:16;;;;;;;10.48;6.53;;;;;;;11.02;46.72;94161.91;4991185;28;20029;-58
2022/04/07 01:42:45;;;;;;;8.98;5.43;;;;;;;10.91;47.50;94143.88;4991519;28;20053;-55
2022/04/07 01:45:11;;;;;;;10.02;5.18;;;;;;;10.90;47.20;94151.72;4991340;28;20517;-57
2022/04/07 01:47:39;;;;;;;8.70;5.05;;;;;;;10.67;47.60;94120.78;4991440;28;20082;-60
2022/04/07 01:50:08;;;;;;;6.60;4.80;;;;;;;10.77;47.51;94147.53;4991516;28;20097;-57
2022/04/07 01:52:37;;;;;;;6.63;5.10;;;;;;;10.65;47.88;94140.72;4991084;28;20034;-60
2022/04/07 01:55:04;;;;;;;8.05;5.18;;;;;;;10.68;47.93;94145.66;4990056;28;20034;-58
2022/04/07 01:57:31;;;;;;;7.40;5.35;;;;;;;10.74;48.52;94141.75;4991324;28;20037;-58
2022/04/07 01:59:58;;;;;;;8.80;5.78;;;;;;;10.80;48.49;94138.72;4991545;28;20029;-57
2022/04/07 02:02:24;;;;;;;10.40;6.00;;;;;;;10.82;48.10;94122.19;4991277;28;20031;-58
2022/04/07 02:05:09;;;;;;;9.02;6.40;;;;;;;10.83;47.63;94120.44;4990977;28;20476;-58
2022/04/07 02:07:36;;;;;;;10.32;6.05;;;;;;;10.89;47.48;94116.53;4991279;28;20077;-58
2022/04/07 02:10:06;;;;;;;9.23;5.78;;;;;;;10.95;47.61;94114.31;4991056;28;20402;-57
2022/04/07 02:12:33;;;;;;;10.13;5.68;;;;;;;11.00;46.91;94081.25;4991311;28;20088;-58
2022/04/07 02:15:02;;;;;;;9.32;6.20;;;;;;;10.96;47.40;94108.22;4990413;28;20572;-57
2022/04/07 02:17:27;;;;;;;9.38;6.00;;;;;;;10.93;46.61;94110.22;4991140;28;20022;-60
2022/04/07 02:19:55;;;;;;;8.98;5.25;;;;;;;10.92;47.18;94124.88;4991184;28;20053;-61
2022/04/07 02:22:21;;;;;;;8.35;6.05;;;;;;;10.76;47.50;94114.94;4991063;28;20032;-59
2022/04/07 02:24:48;;;;;;;8.15;5.32;;;;;;;10.62;48.43;94089.41;4990887;28;20027;-63
2022/04/07 02:27:14;;;;;;;10.13;6.25;;;;;;;10.47;48.25;94061.28;4990678;28;20041;-58
2022/04/07 02:29:42;;;;;;;8.35;5.38;;;;;;;10.80;47.77;94113.75;4989311;28;20110;-60
2022/04/07 02:32:09;;;;;;;21.85;8.77;;;;;;;10.77;47.88;94093.38;4989338;28;20133;-58
2022/04/07 02:34:35;;;;;;;8.70;5.10;;;;;;;10.70;48.19;94088.81;4990550;28;20520;-58
2022/04/07 02:37:01;;;;;;;11.88;5.60;;;;;;;10.71;47.60;94093.00;4990767;28;20030;-59
2022/04/07 02:39:27;;;;;;;7.47;5.32;;;;;;;10.49;47.98;94061.19;4989962;28;20119;-60
2022/04/07 02:41:53;;;;;;;9.23;6.15;;;;;;;10.87;47.79;94078.00;4990510;28;20078;-57
2022/04/07 02:44:19;;;;;;;8.10;5.47;;;;;;;11.01;47.57;94069.16;4990353;28;20088;-57
2022/04/07 02:46:45;;;;;;;8.35;4.93;;;;;;;10.96;47.67;94058.38;4990070;28;20197;-59
2022/04/07 02:49:11;;;;;;;8.25;5.18;;;;;;;11.07;47.66;94073.81;4990452;28;20113;-58
2022/04/07 02:51:36;;;;;;;8.82;5.22;;;;;;;11.17;46.91;94066.16;4990102;28;20034;-59
2022/04/07 02:54:02;;;;;;;6.88;4.40;;;;;;;11.28;46.64;94057.53;4990283;28;20454;-57
2022/04/07 02:56:28;;;;;;;6.05;4.70;;;;;;;11.34;46.38;94057.06;4990310;28;20030;-59
2022/04/07 02:58:54;;;;;;;9.70;5.50;;;;;;;11.22;46.33;94035.66;4990574;28;20168;-59
2022/04/07 03:01:20;;;;;;;10.82;5.07;;;;;;;11.29;46.62;94030.81;4990057;28;20026;-56
2022/04/07 03:03:45;;;;;;;5.75;4.55;;;;;;;11.32;46.60;94022.81;4989764;28;20033;-64
2022/04/07 03:06:11;;;;;;;7.60;4.70;;;;;;;11.25;46.99;94019.91;4990211;28;20057;-59
2022/04/07 03:08:36;;;;;;;7.53;4.55;;;;;;;10.95;47.18;93976.78;4990187;28;20042;-60
2022/04/07 03:11:03;;;;;;;9.90;4.97;;;;;;;11.13;46.57;94011.38;4990060;28;20116;-63
2022/04/07 03:13:28;;;;;;;9.18;4.82;;;;;;;11.22;46.82;94043.38;4990004;28;20528;-59
2022/04/07 03:15:54;;;;;;;6.10;4.80;;;;;;;11.15;47.48;94032.75;4989461;28;20113;-60
2022/04/07 03:18:20;;;;;;;7.03;5.03;;;;;;;11.10;46.93;93977.28;4989783;28;20038;-57
2022/04/07 03:20:46;;;;;;;9.15;4.85;;;;;;;11.32;47.10;93997.81;4989886;28;20090;-60
2022/04/07 03:23:12;;;;;;;10.52;5.80;;;;;;;11.32;46.67;93997.81;4989793;28;20506;-61
2022/04/07 03:25:37;;;;;;;8.15;5.22;;;;;;;11.28;46.50;94003.34;4989757;28;20081;-59
2022/04/07 03:28:06;;;;;;;8.18;4.70;;;;;;;11.32;46.43;94010.72;4987895;28;20027;-62
2022/04/07 03:30:31;;;;;;;7.90;5.38;;;;;;;11.26;47.21;93994.91;4988121;28;20129;-57
2022/04/07 03:32:57;;;;;;;5.40;4.65;;;;;;;11.26;47.24;94007.81;4989608;28;20113;-57
2022/04/07 03:35:22;;;;;;;8.57;4.85;;;;;;;11.35;46.54;94004.50;4989698;28;20026;-59
2022/04/07 03:37:48;;;;;;;8.15;4.78;;;;;;;11.23;46.70;93977.91;4989302;28;20054;-58
2022/04/07 03:40:13;;;;;;;8.68;4.82;;;;;;;10.95;47.49;93930.34;4988764;28;20046;-59
2022/04/07 03:42:39;;;;;;;7.10;4.70;;;;;;;11.25;47.36;93972.63;4989473;28;20026;-62
2022/04/07 03:45:05;;;;;;;10.55;4.50;;;;;;;10.83;47.19;93924.44;4989344;28;20109;-62
2022/04/07 03:47:31;;;;;;;9.98;5.10;;;;;;;11.12;47.46;93947.03;4989388;28;20494;-64
2022/04/07 03:49:57;;;;;;;8.93;5.18;;;;;;;11.06;47.93;93922.56;4989325;28;20034;-57
2022/04/07 03:52:22;;;;;;;8.93;5.15;;;;;;;11.03;47.30;93908.16;4987627;28;20130;-59
2022/04/07 03:54:48;;;;;;;8.98;5.18;;;;;;;11.14;47.15;93935.63;4989099;28;20037;-57
2022/04/07 03:57:14;;;;;;;12.38;6.63;;;;;;;11.21;47.30;93954.00;4989203;28;20033;-59
2022/04/07 03:59:42;;;;;;;8.32;5.75;;;;;;;11.10;47.60;93936.00;4989473;28;20037;-57
2022/04/07 04:02:08;;;;;;;7.78;5.30;;;;;;;10.81;48.91;93890.22;4989301;28;20461;-58
2022/04/07 04:04:33;;;;;;;9.68;5.60;;;;;;;11.12;48.56;93940.13;4988779;28;20538;-59
2022/04/07 04:07:00;;;;;;;8.52;5.05;;;;;;;10.70;49.76;93883.34;4989121;28;20030;-61
2022/04/07 04:09:25;;;;;;;10.23;5.70;;;;;;;10.83;48.72;93914.13;4989060;28;20069;-57
2022/04/07 04:11:52;;;;;;;9.38;5.60;;;;;;;10.83;49.43;93948.44;4989032;28;20041;-60
2022/04/07 04:14:18;;;;;;;11.13;5.65;;;;;;;10.77;49.63;93968.75;4989057;28;20030;-57
2022/04/07 04:16:43;;;;;;;7.20;4.93;;;;;;;10.56;49.86;93937.78;4991143;28;20432;-59
2022/04/07 04:19:09;;;;;;;8.57;4.72;;;;;;;10.83;49.23;93978.59;5008494;28;20092;-59
2022/04/07 04:21:34;;;;;;;9.95;5.50;;;;;;;10.94;49.21;93983.72;5008430;28;20025;-55
2022/04/07 04:24:00;;;;;;;9.30;5.60;;;;;;;10.90;49.13;93966.81;5008610;28;20058;-61
2022/04/07 04:26:26;;;;;;;11.65;5.65;;;;;;;10.88;49.26;93952.44;5007944;28;20030;-60
2022/04/07 04:28:52;;;;;;;12.13;6.15;;;;;;;10.69;48.95;93922.16;5007788;28;20029;-67
2022/04/07 04:31:18;;;;;;;8.15;5.07;;;;;;;11.00;48.89;93957.41;5008167;28;20026;-65
2022/04/07 04:33:43;;;;;;;11.32;5.70;;;;;;;10.67;48.70;93919.69;5008457;28;20759;-62
2022/04/07 04:36:09;;;;;;;7.97;5.40;;;;;;;10.79;49.08;93959.97;5008459;28;20057;-61
2022/04/07 04:38:34;;;;;;;10.48;5.15;;;;;;;10.99;48.80;93958.34;4993465;28;20085;-58
2022/04/07 04:41:00;;;;;;;10.90;5.20;;;;;;;11.25;47.71;93963.16;4988315;28;20399;-57
2022/04/07 04:43:25;;;;;;;10.07;5.40;;;;;;;11.27;48.57;93953.50;4988396;28;20502;-61
2022/04/07 04:45:51;;;;;;;8.38;5.07;;;;;;;10.26;48.76;93807.84;4988306;28;20039;-56
2022/04/07 04:48:16;;;;;;;9.55;5.82;;;;;;;11.31;48.92;93946.31;4988793;28;20118;-60
2022/04/07 04:50:42;;;;;;;9.27;5.55;;;;;;;11.29;48.39;93941.28;4988632;28;20110;-60
2022/04/07 04:53:07;;;;;;;8.77;5.82;;;;;;;11.40;48.13;93936.06;4990332;28;20052;-57
2022/04/07 04:55:32;;;;;;;10.20;5.82;;;;;;;11.25;48.48;93919.28;4992463;28;20026;-58
2022/04/07 04:57:58;;;;;;;10.82;5.38;;;;;;;11.19;48.56;93925.75;4992559;28;20026;-59
2022/04/07 05:00:23;;;;;;;10.90;6.10;;;;;;;11.39;48.63;93941.34;4997383;28;20033;-57
2022/04/07 05:02:49;;;;;;;8.35;5.90;;;;;;;11.46;48.33;93957.13;4999587;28;20101;-59
2022/04/07 05:05:14;;;;;;;9.93;5.93;;;;;;;11.64;47.52;93958.19;5001299;28;20036;-56
2022/04/07 05:07:40;;;;;;;12.45;7.20;;;;;;;11.27;47.62;93895.94;5001802;28;20033;-61
2022/04/07 05:10:06;;;;;;;10.93;6.15;;;;;;;11.57;47.40;93919.13;4999142;28;20034;-56
2022/04/07 05:12:32;;;;;;;12.65;6.70;;;;;;;11.72;46.79;93924.78;4998036;28;20408;-59
2022/04/07 05:14:57;;;;;;;11.98;6.45;;;;;;;11.75;47.20;93940.00;4999111;28;20121;-56
2022/04/07 05:17:23;;;;;;;14.65;6.20;;;;;;;11.80;47.08;93944.78;5001509;28;20062;-58
2022/04/07 05:19:49;;;;;;;9.70;6.00;;;;;;;11.84;46.81;93951.34;5002301;28;20507;-57
2022/04/07 05:22:14;;;;;;;7.72;5.80;;;;;;;11.91;46.39;93931.81;5001804;28;20045;-59
2022/04/07 05:24:40;;;;;;;11.23;6.72;;;;;;;12.00;46.23;93935.34;5000160;28;20026;-63
2022/04/07 05:27:06;;;;;;;10.55;6.60;;;;;;;11.94;45.58;93928.16;5000199;28;20112;-57
2022/04/07 05:29:31;;;;;;;8.75;6.60;;;;;;;12.09;46.24;93936.34;5000907;28;20022;-58
2022/04/07 05:31:57;;;;;;;13.77;8.23;;;;;;;12.22;45.16;93938.69;5003870;28;20037;-62
2022/04/07 05:34:22;;;;;;;11.52;6.80;;;;;;;12.22;45.45;93926.59;5008293;28;20049;-57
2022/04/07 05:36:48;;;;;;;9.52;7.40;;;;;;;12.27;45.33;93927.00;5004321;28;20497;-55
2022/04/07 05:39:13;;;;;;;10.77;6.45;;;;;;;12.36;45.01;93934.91;5007807;28;20045;-59
2022/04/07 05:41:39;;;;;;;11.98;6.18;;;;;;;12.34;44.72;93923.88;5003961;28;20030;-61
2022/04/07 05:44:05;;;;;;;12.55;7.28;;;;;;;12.32;44.55;93926.59;5008053;28;20171;-58
2022/04/07 05:46:31;;;;;;;10.10;6.13;;;;;;;12.61;44.37;93941.31;5004946;28;20058;-60
2022/04/07 05:48:56;;;;;;;12.85;7.07;;;;;;;12.64;43.96;93928.13;5007378;28;20037;-59
2022/04/07 05:51:21;;;;;;;20.23;12.23;;;;;;;12.56;43.27;93928.81;5006866;28;20034;-57
2022/04/07 05:53:47;;;;;;;9.38;5.65;;;;;;;12.17;49.91;93846.06;5006418;28;20402;-54
2022/04/07 05:56:13;;;;;;;12.55;6.80;;;;;;;12.35;43.79;93912.56;5007642;28;20107;-54
2022/04/07 05:58:38;;;;;;;9.77;7.68;;;;;;;12.32;44.37;93893.00;5000002;28;20037;-56
2022/04/07 06:01:03;;;;;;;9.48;6.45;;;;;;;12.39;44.39;93901.03;5005280;28;20033;-61
2022/04/07 06:03:31;;;;;;;9.98;6.78;;;;;;;12.39;44.37;93907.00;5003731;28;20143;-57
2022/04/07 06:05:57;;;;;;;13.55;7.40;;;;;;;12.26;44.12;93876.25;5001246;28;20031;-54
2022/04/07 06:08:23;;;;;;;11.23;6.80;;;;;;;12.36;44.38;93883.19;5001803;28;20022;-59
2022/04/07 06:10:48;;;;;;;12.18;6.70;;;;;;;12.30;43.95;93877.63;5007322;28;20151;-58
2022/04/07 06:13:15;;;;;;;9.48;6.40;;;;;;;12.37;43.69;93895.19;5000497;28;20041;-64
2022/04/07 06:15:42;;;;;;;10.82;6.93;;;;;;;12.34;43.74;93895.44;5003702;28;20034;-58
2022/04/07 06:18:08;;;;;;;9.45;6.88;;;;;;;12.17;43.69;93858.13;5002260;28;20138;-56
2022/04/07 06:20:33;;;;;;;13.07;6.95;;;;;;;12.35;43.61;93884.97;5003722;28;20478;-57
2022/04/07 06:23:00;;;;;;;9.02;6.32;;;;;;;12.24;43.69;93891.06;5006064;28;20030;-59
2022/04/07 06:25:26;;;;;;;10.68;7.00;;;;;;;12.03;44.13;93854.19;5001685;28;20363;-58
2022/04/07 06:27:52;;;;;;;11.80;7.15;;;;;;;12.23;43.97;93896.38;5003929;28;20449;-57
2022/04/07 06:30:20;;;;;;;12.23;7.35;;;;;;;12.21;43.82;93888.75;5002258;28;20029;-56
2022/04/07 06:32:47;;;;;;;11.68;6.95;;;;;;;12.23;43.92;93892.03;5000483;28;20044;-57
2022/04/07 06:35:14;;;;;;;10.45;6.68;;;;;;;12.38;43.43;93881.28;4997142;28;20041;-58
2022/04/07 06:37:55;;;;;;;17.23;7.30;;;;;;;12.42;43.89;93878.31;5007125;28;20460;-57
2022/04/07 06:40:25;;;;;;;10.45;6.97;;;;;;;12.51;43.22;93858.59;4971329;28;20560;-57
2022/04/07 06:42:53;;;;;;;11.38;7.10;;;;;;;12.48;43.05;93884.72;5003018;28;20069;-57
2022/04/07 06:45:19;;;;;;;14.10;9.75;;;;;;;12.47;43.65;93868.38;5005334;28;20033;-59
2022/04/07 06:47:44;;;;;;;14.75;9.05;;;;;;;12.35;43.60;93843.63;5006200;28;20123;-58
2022/04/07 06:50:14;;;;;;;12.57;8.30;;;;;;;12.64;43.52;93869.47;4999837;28;20038;-60
2022/04/07 06:52:41;;;;;;;17.70;9.77;;;;;;;12.66;43.54;93867.56;4989739;28;20119;-58
2022/04/07 06:55:07;;;;;;;14.98;7.63;;;;;;;12.66;43.87;93871.91;4987864;28;20034;-60
2022/04/07 06:57:52;;;;;;;12.63;7.93;;;;;;;12.67;43.64;93876.97;4989150;28;20109;-59
2022/04/07 07:00:20;;;;;;;11.38;7.82;;;;;;;12.56;43.31;93864.16;4988991;28;20052;-63
2022/04/07 07:02:51;;;;;;;11.57;7.90;;;;;;;12.49;43.78;93848.38;4988503;28;20065;-58
2022/04/07 07:05:18;;;;;;;13.02;7.97;;;;;;;12.45;44.03;93815.19;5005163;28;20050;-59
2022/04/07 07:07:44;;;;;;;13.77;8.65;;;;;;;12.61;42.94;93810.25;5009188;28;20100;-58
2022/04/07 07:10:09;;;;;;;13.38;8.10;;;;;;;12.78;42.22;93789.81;5008328;28;20114;-56
2022/04/07 07:12:35;;;;;;;15.00;8.13;;;;;;;13.19;41.86;93862.84;5009261;28;20038;-56
2022/04/07 07:15:00;;;;;;;19.42;9.10;;;;;;;13.08;41.83;93837.13;5008068;28;20042;-62
2022/04/07 07:17:33;;;;;;;15.23;8.05;;;;;;;12.92;42.18;93838.53;5009097;28;20033;-58
2022/04/07 07:20:06;;;;;;;11.93;7.60;;;;;;;12.80;41.99;93821.50;5009591;28;20030;-57
2022/04/07 07:22:32;;;;;;;12.40;7.68;;;;;;;13.16;41.75;93855.34;5009203;28;20045;-58
2022/04/07 07:24:58;;;;;;;12.75;7.63;;;;;;;12.98;41.48;93819.84;5007290;28;20022;-58
2022/04/07 07:27:23;;;;;;;13.00;7.10;;;;;;;13.27;40.60;93831.06;5008686;28;20059;-61
2022/04/07 07:29:49;;;;;;;12.90;7.55;;;;;;;13.70;40.65;93864.16;5009031;28;20495;-56
2022/04/07 07:32:14;;;;;;;9.98;6.82;;;;;;;13.86;40.32;93857.56;5008985;28;20030;-65
2022/04/07 07:34:39;;;;;;;14.57;7.10;;;;;;;14.00;40.27;93851.84;5008570;28;20080;-62
2022/04/07 07:37:05;;;;;;;13.93;8.25;;;;;;;13.91;39.36;93822.44;5008922;28;20394;-56
2022/04/07 07:39:30;;;;;;;11.40;6.55;;;;;;;14.13;38.77;93836.78;5007915;28;20082;-61
2022/04/07 07:41:56;;;;;;;10.23;6.25;;;;;;;14.28;38.85;93825.88;5008337;28;20044;-58
2022/04/07 07:44:21;;;;;;;10.48;6.72;;;;;;;14.57;38.06;93799.69;5008894;28;20518;-58
2022/04/07 07:46:47;;;;;;;13.95;7.95;;;;;;;14.86;36.88;93819.41;5008713;28;20428;-58
2022/04/07 07:49:13;;;;;;;13.00;8.30;;;;;;;14.72;37.21;93800.00;5008955;28;20040;-61
2022/04/07 07:51:38;;;;;;;13.20;7.25;;;;;;;14.68;37.78;93824.63;5008151;28;20026;-59
2022/04/07 07:54:04;;;;;;;15.05;7.68;;;;;;;14.75;38.74;93824.84;5006699;28;20104;-57
2022/04/07 07:56:30;;;;;;;18.15;8.68;;;;;;;14.74;39.59;93803.28;4988942;28;20030;-58
2022/04/07 07:58:55;;;;;;;12.95;9.02;;;;;;;14.51;40.69;93815.84;4989072;28;20038;-58
2022/04/07 08:01:21;;;;;;;12.20;8.35;;;;;;;14.52;41.65;93807.94;4996454;28;20033;-57
2022/04/07 08:03:47;;;;;;;12.77;9.05;;;;;;;14.40;41.32;93759.06;5007534;28;20120;-58
2022/04/07 08:06:13;;;;;;;10.90;9.05;;;;;;;14.83;41.66;93794.56;5008491;28;20098;-57
2022/04/07 08:08:38;;;;;;;13.82;8.45;;;;;;;14.73;41.00;93783.47;5008478;28;20042;-58
2022/04/07 08:11:04;;;;;;;14.25;8.70;;;;;;;15.04;41.12;93785.63;5007767;28;20038;-60
2022/04/07 08:13:30;;;;;;;14.63;8.88;;;;;;;15.40;39.06;93794.06;5006652;28;20065;-60
2022/04/07 08:15:55;;;;;;;12.43;9.07;;;;;;;15.38;38.38;93787.38;5008120;28;20060;-58
2022/04/07 08:18:21;;;;;;;16.88;9.07;;;;;;;15.25;38.95;93765.28;5008600;28;20501;-54
2022/04/07 08:20:46;;;;;;;14.38;8.68;;;;;;;15.37;38.33;93768.41;5006781;28;20068;-58
2022/04/07 08:23:12;;;;;;;16.98;8.65;;;;;;;15.63;37.07;93780.50;5008240;28;20048;-58
2022/04/07 08:25:38;;;;;;;13.77;8.35;;;;;;;15.79;36.66;93764.19;4993148;28;20375;-56
2022/04/07 08:28:04;;;;;;;13.18;9.65;;;;;;;15.73;36.28;93749.19;4987724;28;20027;-58
2022/04/07 08:30:34;;;;;;;14.77;9.52;;;;;;;15.86;36.00;93765.16;4988531;28;20481;-62
2022/04/07 08:33:00;;;;;;;13.50;8.10;;;;;;;15.44;35.98;93734.81;4988854;28;20062;-55
2022/04/07 08:35:25;;;;;;;12.38;7.80;;;;;;;15.78;35.69;93739.16;4988649;28;20019;-60
2022/04/07 08:37:51;;;;;;;9.80;7.32;;;;;;;15.88;35.11;93724.22;4988565;28;20031;-56
2022/04/07 08:40:20;;;;;;;12.50;7.72;;;;;;;16.25;34.12;93722.97;4998594;28;20030;-60
2022/04/07 08:42:45;;;;;;;11.32;7.43;;;;;;;16.59;33.83;93724.53;5007450;28;20029;-59
2022/04/07 08:45:11;;;;;;;10.52;7.00;;;;;;;16.08;33.74;93697.91;5008280;28;20408;-59
2022/04/07 08:47:37;;;;;;;11.75;6.40;;;;;;;16.11;33.99;93715.81;5005982;28;20482;-59
2022/04/07 08:50:04;;;;;;;12.27;7.55;;;;;;;16.20;34.06;93740.00;5008275;28;20061;-57
2022/04/07 08:52:30;;;;;;;12.52;8.23;;;;;;;15.86;34.13;93697.59;5007468;28;20413;-56
2022/04/07 08:54:56;;;;;;;11.38;6.78;;;;;;;16.82;36.80;93742.06;5007496;28;20022;-57
2022/04/07 08:57:23;;;;;;;11.95;6.90;;;;;;;17.36;32.82;93703.19;5007634;28;20040;-60
2022/04/07 08:59:48;;;;;;;13.13;7.18;;;;;;;17.07;32.92;93709.81;5007918;28;20080;-60
2022/04/07 09:02:14;;;;;;;11.70;6.22;;;;;;;17.55;31.97;93719.41;5007718;28;20038;-59
2022/04/07 09:04:40;;;;;;;10.80;7.30;;;;;;;17.54;32.56;93723.78;5006079;28;20092;-61
2022/04/07 09:07:07;;;;;;;10.57;7.13;;;;;;;17.62;32.16;93730.75;5007827;28;20125;-60
2022/04/07 09:09:36;;;;;;;12.80;7.22;;;;;;;17.56;31.67;93719.22;5001424;28;20145;-58
2022/04/07 09:12:02;;;;;;;12.45;7.28;;;;;;;17.57;31.79;93727.84;4987954;28;20109;-62
2022/04/07 09:14:32;;;;;;;10.95;8.27;;;;;;;17.69;31.77;93733.50;4988042;28;20026;-61
2022/04/07 09:16:58;;;;;;;14.00;8.27;;;;;;;16.81;33.28;93717.03;4987945;28;20556;-56
2022/04/07 09:19:24;;;;;;;11.45;6.90;;;;;;;16.24;34.93;93744.72;4988183;28;20038;-58
2022/04/07 09:22:10;;;;;;;13.27;8.13;;;;;;;15.50;37.05;93759.38;4988236;28;20116;-60
2022/04/07 09:24:41;;;;;;;10.40;6.95;;;;;;;14.93;39.62;93767.72;4987736;28;20015;-58
2022/04/07 09:27:09;;;;;;;16.27;7.15;;;;;;;14.75;39.83;93778.94;4987993;28;20406;-58
2022/04/07 09:29:41;;;;;;;13.10;7.45;;;;;;;14.54;39.68;93768.88;4987970;28;20034;-62
2022/04/07 09:32:21;;;;;;;15.50;7.55;;;;;;;14.30;41.53;93756.56;4988186;28;20041;-56
2022/04/07 09:34:57;;;;;;;13.80;6.93;;;;;;;14.27;39.98;93770.63;4988014;28;20034;-60
2022/04/07 09:37:25;;;;;;;10.63;6.20;;;;;;;14.14;40.20;93765.00;4987998;28;20046;-61
2022/04/07 09:40:04;;;;;;;13.93;7.47;;;;;;;14.02;42.63;93764.41;4990302;28;20117;-60
2022/04/07 09:42:29;;;;;;;10.48;7.30;;;;;;;13.81;43.89;93766.47;4991476;28;20102;-60
2022/04/07 09:44:59;;;;;;;17.67;8.05;;;;;;;13.71;43.58;93787.28;4990761;28;20427;-56
2022/04/07 09:47:39;;;;;;;11.60;8.55;;;;;;;13.27;42.64;93684.31;4989739;28;20108;-60
2022/04/07 09:50:28;;;;;;;14.50;7.43;;;;;;;13.63;42.44;93775.03;4990943;28;20049;-60
2022/04/07 09:52:59;;;;;;;15.85;9.65;;;;;;;13.45;44.26;93741.34;4990628;28;20497;-59
2022/04/07 09:55:29;;;;;;;14.25;8.05;;;;;;;13.49;44.75;93765.16;4990553;28;20099;-55
2022/04/07 09:57:55;;;;;;;9.75;6.18;;;;;;;13.21;46.26;93802.19;4990893;28;20037;-57
2022/04/07 10:00:21;;;;;;;6.00;4.78;;;;;;;11.92;53.06;93809.47;4990824;28;20443;-60
2022/04/07 10:02:47;;;;;;;14.27;8.00;;;;;;;10.54;56.53;93705.91;4990908;28;20030;-57
2022/04/07 10:05:14;;;;;;;17.73;11.18;;;;;;;10.86;63.03;93792.66;4990803;28;20022;-59
2022/04/07 10:07:42;;;;;;;16.63;8.55;;;;;;;10.75;66.01;93816.75;4991382;28;20026;-57
2022/04/07 10:10:08;;;;;;;12.95;6.68;;;;;;;10.59;69.23;93818.97;5000189;28;20022;-54
2022/04/07 10:12:34;;;;;;;19.80;7.38;;;;;;;10.01;75.33;93809.03;5003921;28;20523;-61
2022/04/07 10:14:59;;;;;;;17.83;9.25;;;;;;;9.63;77.87;93808.53;5007068;28;20037;-59
2022/04/07 10:17:25;;;;;;;20.50;10.00;;;;;;;9.60;79.67;93819.09;5006250;28;20049;-62
2022/04/07 10:19:58;;;;;;;26.55;12.63;;;;;;;9.50;80.73;93816.41;5008429;28;20030;-62
2022/04/07 10:22:42;;;;;;;24.92;13.50;;;;;;;9.43;79.68;93817.00;5008152;28;20034;-59
2022/04/07 10:25:08;;;;;;;22.48;14.90;;;;;;;9.29;82.33;93800.06;5006115;28;20116;-58
2022/04/07 10:27:42;;;;;;;26.95;17.20;;;;;;;9.47;84.03;93811.50;5004920;28;20441;-63
2022/04/07 10:30:11;;;;;;;27.80;17.55;;;;;;;9.63;85.18;93815.47;5007270;28;20450;-62
2022/04/07 10:32:41;;;;;;;26.30;17.35;;;;;;;9.83;86.38;93812.13;5011080;28;20508;-62
2022/04/07 10:35:07;;;;;;;22.90;15.80;;;;;;;10.01;84.81;93814.97;5008786;28;20044;-56
2022/04/07 10:37:47;;;;;;;26.35;16.60;;;;;;;10.21;85.06;93808.22;5010609;28;20033;-63
2022/04/07 10:40:33;;;;;;;30.48;19.40;;;;;;;10.38;83.64;93806.91;4997663;28;20042;-63
2022/04/07 10:43:10;;;;;;;20.63;12.85;;;;;;;10.51;78.86;93806.72;4990589;28;20118;-58
2022/04/07 10:45:41;;;;;;;15.23;10.93;;;;;;;10.50;77.08;93806.84;4990195;28;20417;-58
2022/04/07 10:48:28;;;;;;;17.90;13.60;;;;;;;10.58;78.72;93791.56;4990093;28;20120;-62
2022/04/07 10:51:08;;;;;;;21.20;13.18;;;;;;;10.70;78.53;93795.69;4988674;28;20138;-60
2022/04/07 10:53:37;;;;;;;19.92;12.70;;;;;;;10.81;76.06;93784.50;4990579;28;20049;-59
2022/04/07 10:56:21;;;;;;;20.40;11.65;;;;;;;11.17;73.91;93778.00;5001656;28;20029;-57
2022/04/07 10:58:54;;;;;;;15.98;10.60;;;;;;;11.26;73.96;93773.81;4989822;28;20034;-58
2022/04/07 11:01:31;;;;;;;18.23;11.43;;;;;;;11.41;72.73;93774.25;4990121;28;20121;-58
2022/04/07 11:04:21;;;;;;;19.23;13.68;;;;;;;11.66;72.84;93761.78;4989645;28;20414;-60
2022/04/07 11:07:02;;;;;;;20.02;11.38;;;;;;;11.91;72.70;93757.91;4998046;28;20732;-60
2022/04/07 11:09:47;;;;;;;17.58;10.90;;;;;;;12.36;70.69;93749.59;5008244;28;20487;-59
2022/04/07 11:12:22;;;;;;;14.93;8.52;;;;;;;12.62;66.22;93754.19;5009372;28;20045;-55
2022/04/07 11:14:50;;;;;;;13.38;9.57;;;;;;;12.88;64.18;93738.84;5007667;28;20034;-60
2022/04/07 11:17:33;;;;;;;12.27;9.07;;;;;;;13.00;61.91;93745.50;5008468;28;20022;-62
2022/04/07 11:20:13;;;;;;;14.50;8.30;;;;;;;13.05;61.55;93745.03;5008141;28;20030;-59
2022/04/07 11:22:49;;;;;;;13.80;8.25;;;;;;;13.19;60.62;93736.00;5008859;28;20109;-58
2022/04/07 11:25:20;;;;;;;11.68;8.68;;;;;;;13.39;60.41;93747.91;5008620;28;20072;-59
2022/04/07 11:28:01;;;;;;;13.23;9.23;;;;;;;13.49;60.77;93721.16;5008720;28;20501;-59